sensor_id;sensor_type;location;lat;lon;timestamp;P1;durP1;ratioP1;P2;durP2;ratioP2
4957;SDS011;2494;51.872;9.688;2022-11-20T00:02:58;5.10;;;4.10;;
4957;SDS011;2494;51.872;9.688;2022-11-20T00:05:43;4.67;;;3.40;;
4957;SDS011;2494;51.872;9.688;2022-11-20T00:08:28;4.20;;;3.70;;
4957;SDS011;2494;51.872;9.688;2022-11-20T00:11:16;6.13;;;4.00;;
4957;SDS011;2494;51.872;9.688;2022-11-20T00:14:01;4.23;;;3.40;;
4957;SDS011;2494;51.872;9.688;2022-11-20T00:16:47;4.13;;;3.43;;
4957;SDS011;2494;51.872;9.688;2022-11-20T00:19:32;9.00;;;6.67;;
4957;SDS011;2494;51.872;9.688;2022-11-20T00:22:17;5.03;;;4.40;;
4957;SDS011;2494;51.872;9.688;2022-11-20T00:25:02;6.80;;;5.40;;
4957;SDS011;2494;51.872;9.688;2022-11-20T00:27:48;6.30;;;4.20;;
4957;SDS011;2494;51.872;9.688;2022-11-20T00:30:33;5.40;;;3.87;;
4957;SDS011;2494;51.872;9.688;2022-11-20T00:33:18;7.30;;;5.00;;
4957;SDS011;2494;51.872;9.688;2022-11-20T00:36:03;7.33;;;3.70;;
4957;SDS011;2494;51.872;9.688;2022-11-20T00:38:50;7.73;;;5.50;;
4957;SDS011;2494;51.872;9.688;2022-11-20T00:41:35;8.50;;;4.57;;
4957;SDS011;2494;51.872;9.688;2022-11-20T00:44:22;8.93;;;5.77;;
4957;SDS011;2494;51.872;9.688;2022-11-20T00:47:07;10.97;;;5.40;;
4957;SDS011;2494;51.872;9.688;2022-11-20T00:49:52;7.87;;;5.30;;
4957;SDS011;2494;51.872;9.688;2022-11-20T00:52:37;7.40;;;5.40;;
4957;SDS011;2494;51.872;9.688;2022-11-20T00:55:22;6.93;;;4.20;;
4957;SDS011;2494;51.872;9.688;2022-11-20T00:58:06;5.77;;;4.23;;
4957;SDS011;2494;51.872;9.688;2022-11-20T01:00:53;6.00;;;5.17;;
4957;SDS011;2494;51.872;9.688;2022-11-20T01:03:39;6.20;;;4.27;;
4957;SDS011;2494;51.872;9.688;2022-11-20T01:06:24;8.33;;;5.57;;
4957;SDS011;2494;51.872;9.688;2022-11-20T01:09:10;7.37;;;5.40;;
4957;SDS011;2494;51.872;9.688;2022-11-20T01:11:55;6.50;;;4.63;;
4957;SDS011;2494;51.872;9.688;2022-11-20T01:14:40;5.43;;;5.00;;
4957;SDS011;2494;51.872;9.688;2022-11-20T01:17:27;7.20;;;3.97;;
4957;SDS011;2494;51.872;9.688;2022-11-20T01:20:12;4.70;;;3.80;;
4957;SDS011;2494;51.872;9.688;2022-11-20T01:22:57;7.10;;;4.70;;
4957;SDS011;2494;51.872;9.688;2022-11-20T01:25:42;16.03;;;6.60;;
4957;SDS011;2494;51.872;9.688;2022-11-20T01:28:27;9.03;;;5.50;;
4957;SDS011;2494;51.872;9.688;2022-11-20T01:31:13;6.53;;;4.07;;
4957;SDS011;2494;51.872;9.688;2022-11-20T01:34:00;4.90;;;3.60;;
4957;SDS011;2494;51.872;9.688;2022-11-20T01:36:46;3.30;;;2.93;;
4957;SDS011;2494;51.872;9.688;2022-11-20T01:39:31;4.17;;;3.80;;
4957;SDS011;2494;51.872;9.688;2022-11-20T01:42:17;6.30;;;4.33;;
4957;SDS011;2494;51.872;9.688;2022-11-20T01:48:25;6.17;;;4.10;;
4957;SDS011;2494;51.872;9.688;2022-11-20T01:51:15;5.43;;;4.00;;
4957;SDS011;2494;51.872;9.688;2022-11-20T01:54:02;4.13;;;3.73;;
4957;SDS011;2494;51.872;9.688;2022-11-20T01:56:48;6.50;;;4.30;;
4957;SDS011;2494;51.872;9.688;2022-11-20T01:59:36;3.60;;;3.30;;
4957;SDS011;2494;51.872;9.688;2022-11-20T02:02:23;4.10;;;3.70;;
4957;SDS011;2494;51.872;9.688;2022-11-20T02:05:12;3.47;;;3.13;;
4957;SDS011;2494;51.872;9.688;2022-11-20T02:08:02;5.73;;;3.97;;
4957;SDS011;2494;51.872;9.688;2022-11-20T02:10:48;4.70;;;4.23;;
4957;SDS011;2494;51.872;9.688;2022-11-20T02:13:33;5.37;;;4.20;;
4957;SDS011;2494;51.872;9.688;2022-11-20T02:16:31;4.33;;;4.03;;
4957;SDS011;2494;51.872;9.688;2022-11-20T02:19:20;4.67;;;3.53;;
4957;SDS011;2494;51.872;9.688;2022-11-20T02:22:07;4.83;;;4.43;;
4957;SDS011;2494;51.872;9.688;2022-11-20T02:24:57;4.40;;;3.33;;
4957;SDS011;2494;51.872;9.688;2022-11-20T02:27:43;8.33;;;5.30;;
4957;SDS011;2494;51.872;9.688;2022-11-20T02:30:28;9.53;;;6.30;;
4957;SDS011;2494;51.872;9.688;2022-11-20T02:33:13;10.80;;;7.17;;
4957;SDS011;2494;51.872;9.688;2022-11-20T02:35:58;9.27;;;5.77;;
4957;SDS011;2494;51.872;9.688;2022-11-20T02:38:43;7.20;;;4.90;;
4957;SDS011;2494;51.872;9.688;2022-11-20T02:41:34;7.03;;;5.63;;
4957;SDS011;2494;51.872;9.688;2022-11-20T02:44:19;7.20;;;5.13;;
4957;SDS011;2494;51.872;9.688;2022-11-20T02:47:04;8.53;;;5.90;;
4957;SDS011;2494;51.872;9.688;2022-11-20T02:49:50;9.70;;;5.10;;
4957;SDS011;2494;51.872;9.688;2022-11-20T02:52:35;9.03;;;5.90;;
4957;SDS011;2494;51.872;9.688;2022-11-20T02:55:20;7.23;;;5.57;;
4957;SDS011;2494;51.872;9.688;2022-11-20T02:58:06;7.17;;;5.70;;
4957;SDS011;2494;51.872;9.688;2022-11-20T03:00:52;6.97;;;5.53;;
4957;SDS011;2494;51.872;9.688;2022-11-20T03:03:37;8.60;;;5.00;;
4957;SDS011;2494;51.872;9.688;2022-11-20T03:06:22;9.87;;;5.60;;
4957;SDS011;2494;51.872;9.688;2022-11-20T03:09:07;9.93;;;5.90;;
4957;SDS011;2494;51.872;9.688;2022-11-20T03:11:53;6.00;;;5.40;;
4957;SDS011;2494;51.872;9.688;2022-11-20T03:14:40;7.00;;;5.77;;
4957;SDS011;2494;51.872;9.688;2022-11-20T03:17:25;7.00;;;5.10;;
4957;SDS011;2494;51.872;9.688;2022-11-20T03:20:10;15.23;;;8.10;;
4957;SDS011;2494;51.872;9.688;2022-11-20T03:22:56;14.53;;;8.00;;
4957;SDS011;2494;51.872;9.688;2022-11-20T03:25:41;10.20;;;5.77;;
4957;SDS011;2494;51.872;9.688;2022-11-20T03:28:26;9.20;;;5.80;;
4957;SDS011;2494;51.872;9.688;2022-11-20T03:31:13;7.20;;;4.70;;
4957;SDS011;2494;51.872;9.688;2022-11-20T03:33:59;5.73;;;4.77;;
4957;SDS011;2494;51.872;9.688;2022-11-20T03:36:44;5.70;;;4.50;;
4957;SDS011;2494;51.872;9.688;2022-11-20T03:39:29;6.60;;;6.00;;
4957;SDS011;2494;51.872;9.688;2022-11-20T03:42:14;8.57;;;7.70;;
4957;SDS011;2494;51.872;9.688;2022-11-20T03:45:13;8.60;;;6.70;;
4957;SDS011;2494;51.872;9.688;2022-11-20T03:48:00;9.57;;;6.50;;
4957;SDS011;2494;51.872;9.688;2022-11-20T03:50:45;7.33;;;5.37;;
4957;SDS011;2494;51.872;9.688;2022-11-20T03:53:31;8.30;;;5.07;;
4957;SDS011;2494;51.872;9.688;2022-11-20T03:56:16;7.50;;;4.07;;
4957;SDS011;2494;51.872;9.688;2022-11-20T03:59:02;5.30;;;3.57;;
4957;SDS011;2494;51.872;9.688;2022-11-20T04:01:47;7.40;;;5.73;;
4957;SDS011;2494;51.872;9.688;2022-11-20T04:04:33;12.67;;;8.93;;
4957;SDS011;2494;51.872;9.688;2022-11-20T04:07:18;12.63;;;8.60;;
4957;SDS011;2494;51.872;9.688;2022-11-20T04:10:04;6.00;;;5.07;;
4957;SDS011;2494;51.872;9.688;2022-11-20T04:12:50;7.53;;;4.23;;
4957;SDS011;2494;51.872;9.688;2022-11-20T04:15:35;4.63;;;4.13;;
4957;SDS011;2494;51.872;9.688;2022-11-20T04:18:20;4.10;;;3.30;;
4957;SDS011;2494;51.872;9.688;2022-11-20T04:21:07;4.50;;;3.80;;
4957;SDS011;2494;51.872;9.688;2022-11-20T04:23:53;3.50;;;2.77;;
4957;SDS011;2494;51.872;9.688;2022-11-20T04:26:38;4.20;;;2.87;;
4957;SDS011;2494;51.872;9.688;2022-11-20T04:29:24;4.03;;;3.50;;
4957;SDS011;2494;51.872;9.688;2022-11-20T04:32:09;4.87;;;3.50;;
4957;SDS011;2494;51.872;9.688;2022-11-20T04:34:54;9.40;;;4.83;;
4957;SDS011;2494;51.872;9.688;2022-11-20T04:37:40;3.40;;;3.10;;
4957;SDS011;2494;51.872;9.688;2022-11-20T04:40:25;3.87;;;3.57;;
4957;SDS011;2494;51.872;9.688;2022-11-20T04:43:10;5.13;;;4.57;;
4957;SDS011;2494;51.872;9.688;2022-11-20T04:45:55;5.70;;;3.93;;
4957;SDS011;2494;51.872;9.688;2022-11-20T04:48:40;7.90;;;4.37;;
4957;SDS011;2494;51.872;9.688;2022-11-20T04:51:25;8.60;;;4.73;;
4957;SDS011;2494;51.872;9.688;2022-11-20T04:54:12;5.27;;;4.00;;
4957;SDS011;2494;51.872;9.688;2022-11-20T04:56:57;5.30;;;4.73;;
4957;SDS011;2494;51.872;9.688;2022-11-20T04:59:42;5.40;;;4.60;;
4957;SDS011;2494;51.872;9.688;2022-11-20T05:02:27;7.97;;;5.07;;
4957;SDS011;2494;51.872;9.688;2022-11-20T05:05:12;8.27;;;5.20;;
4957;SDS011;2494;51.872;9.688;2022-11-20T05:07:57;12.73;;;7.63;;
4957;SDS011;2494;51.872;9.688;2022-11-20T05:10:43;7.77;;;5.70;;
4957;SDS011;2494;51.872;9.688;2022-11-20T05:13:28;10.17;;;6.17;;
4957;SDS011;2494;51.872;9.688;2022-11-20T05:16:15;10.33;;;7.47;;
4957;SDS011;2494;51.872;9.688;2022-11-20T05:19:00;7.33;;;4.73;;
4957;SDS011;2494;51.872;9.688;2022-11-20T05:21:46;10.63;;;5.37;;
4957;SDS011;2494;51.872;9.688;2022-11-20T05:24:31;8.80;;;5.37;;
4957;SDS011;2494;51.872;9.688;2022-11-20T05:27:18;7.77;;;4.50;;
4957;SDS011;2494;51.872;9.688;2022-11-20T05:30:03;5.60;;;4.80;;
4957;SDS011;2494;51.872;9.688;2022-11-20T05:32:49;4.60;;;3.13;;
4957;SDS011;2494;51.872;9.688;2022-11-20T05:35:34;4.50;;;3.40;;
4957;SDS011;2494;51.872;9.688;2022-11-20T05:38:19;5.93;;;3.83;;
4957;SDS011;2494;51.872;9.688;2022-11-20T05:41:04;5.40;;;3.53;;
4957;SDS011;2494;51.872;9.688;2022-11-20T05:43:51;8.10;;;5.77;;
4957;SDS011;2494;51.872;9.688;2022-11-20T05:46:36;8.70;;;6.60;;
4957;SDS011;2494;51.872;9.688;2022-11-20T05:49:21;9.30;;;6.77;;
4957;SDS011;2494;51.872;9.688;2022-11-20T05:52:05;7.77;;;4.97;;
4957;SDS011;2494;51.872;9.688;2022-11-20T05:54:50;3.97;;;3.50;;
4957;SDS011;2494;51.872;9.688;2022-11-20T05:57:35;7.00;;;5.23;;
4957;SDS011;2494;51.872;9.688;2022-11-20T06:00:22;15.07;;;9.20;;
4957;SDS011;2494;51.872;9.688;2022-11-20T06:03:06;9.57;;;6.93;;
4957;SDS011;2494;51.872;9.688;2022-11-20T06:05:51;10.97;;;6.43;;
4957;SDS011;2494;51.872;9.688;2022-11-20T06:08:37;6.83;;;5.57;;
4957;SDS011;2494;51.872;9.688;2022-11-20T06:11:22;9.70;;;7.00;;
4957;SDS011;2494;51.872;9.688;2022-11-20T06:14:06;6.17;;;5.43;;
4957;SDS011;2494;51.872;9.688;2022-11-20T06:16:53;7.70;;;5.40;;
4957;SDS011;2494;51.872;9.688;2022-11-20T06:19:38;8.50;;;5.40;;
4957;SDS011;2494;51.872;9.688;2022-11-20T06:22:23;10.10;;;5.93;;
4957;SDS011;2494;51.872;9.688;2022-11-20T06:25:08;9.13;;;6.05;;
4957;SDS011;2494;51.872;9.688;2022-11-20T06:27:53;7.40;;;5.40;;
4957;SDS011;2494;51.872;9.688;2022-11-20T06:30:38;11.60;;;6.10;;
4957;SDS011;2494;51.872;9.688;2022-11-20T06:33:30;5.10;;;4.40;;
4957;SDS011;2494;51.872;9.688;2022-11-20T06:36:16;4.57;;;4.17;;
4957;SDS011;2494;51.872;9.688;2022-11-20T06:39:03;9.80;;;5.67;;
4957;SDS011;2494;51.872;9.688;2022-11-20T06:41:48;8.63;;;6.10;;
4957;SDS011;2494;51.872;9.688;2022-11-20T06:44:33;8.90;;;5.63;;
4957;SDS011;2494;51.872;9.688;2022-11-20T06:47:18;8.90;;;6.00;;
4957;SDS011;2494;51.872;9.688;2022-11-20T06:50:06;5.73;;;4.87;;
4957;SDS011;2494;51.872;9.688;2022-11-20T06:52:51;5.10;;;4.60;;
4957;SDS011;2494;51.872;9.688;2022-11-20T06:55:36;5.70;;;5.20;;
4957;SDS011;2494;51.872;9.688;2022-11-20T06:58:21;5.43;;;4.60;;
4957;SDS011;2494;51.872;9.688;2022-11-20T07:01:07;11.40;;;7.03;;
4957;SDS011;2494;51.872;9.688;2022-11-20T07:03:52;13.13;;;5.77;;
4957;SDS011;2494;51.872;9.688;2022-11-20T07:06:38;9.33;;;5.80;;
4957;SDS011;2494;51.872;9.688;2022-11-20T07:09:23;11.50;;;7.20;;
4957;SDS011;2494;51.872;9.688;2022-11-20T07:12:08;13.20;;;8.30;;
4957;SDS011;2494;51.872;9.688;2022-11-20T07:14:53;14.17;;;7.53;;
4957;SDS011;2494;51.872;9.688;2022-11-20T07:17:38;9.63;;;6.57;;
4957;SDS011;2494;51.872;9.688;2022-11-20T07:20:23;18.07;;;9.70;;
4957;SDS011;2494;51.872;9.688;2022-11-20T07:23:09;15.20;;;11.30;;
4957;SDS011;2494;51.872;9.688;2022-11-20T07:25:55;15.43;;;7.07;;
4957;SDS011;2494;51.872;9.688;2022-11-20T07:28:43;18.60;;;8.13;;
4957;SDS011;2494;51.872;9.688;2022-11-20T07:31:28;15.80;;;7.50;;
4957;SDS011;2494;51.872;9.688;2022-11-20T07:34:13;12.47;;;8.90;;
4957;SDS011;2494;51.872;9.688;2022-11-20T07:36:58;11.90;;;8.87;;
4957;SDS011;2494;51.872;9.688;2022-11-20T07:39:44;13.93;;;9.43;;
4957;SDS011;2494;51.872;9.688;2022-11-20T07:42:30;11.37;;;9.10;;
4957;SDS011;2494;51.872;9.688;2022-11-20T07:45:15;8.67;;;7.10;;
4957;SDS011;2494;51.872;9.688;2022-11-20T07:48:00;12.97;;;8.80;;
4957;SDS011;2494;51.872;9.688;2022-11-20T07:50:45;16.23;;;10.63;;
4957;SDS011;2494;51.872;9.688;2022-11-20T07:53:30;19.57;;;10.73;;
4957;SDS011;2494;51.872;9.688;2022-11-20T07:56:16;16.97;;;8.80;;
4957;SDS011;2494;51.872;9.688;2022-11-20T07:59:01;15.30;;;12.00;;
4957;SDS011;2494;51.872;9.688;2022-11-20T08:01:47;14.80;;;10.20;;
4957;SDS011;2494;51.872;9.688;2022-11-20T08:04:32;9.03;;;7.93;;
4957;SDS011;2494;51.872;9.688;2022-11-20T08:07:18;12.80;;;8.73;;
4957;SDS011;2494;51.872;9.688;2022-11-20T08:10:03;7.83;;;6.43;;
4957;SDS011;2494;51.872;9.688;2022-11-20T08:12:50;8.23;;;7.43;;
4957;SDS011;2494;51.872;9.688;2022-11-20T08:15:53;8.03;;;6.57;;
4957;SDS011;2494;51.872;9.688;2022-11-20T08:18:37;9.57;;;6.97;;
4957;SDS011;2494;51.872;9.688;2022-11-20T08:21:22;8.93;;;6.80;;
4957;SDS011;2494;51.872;9.688;2022-11-20T08:24:07;7.43;;;5.70;;
4957;SDS011;2494;51.872;9.688;2022-11-20T08:26:53;7.87;;;6.70;;
4957;SDS011;2494;51.872;9.688;2022-11-20T08:29:39;7.03;;;6.30;;
4957;SDS011;2494;51.872;9.688;2022-11-20T08:32:24;10.00;;;6.93;;
4957;SDS011;2494;51.872;9.688;2022-11-20T08:35:09;12.27;;;8.37;;
4957;SDS011;2494;51.872;9.688;2022-11-20T08:37:54;12.57;;;8.57;;
4957;SDS011;2494;51.872;9.688;2022-11-20T08:40:39;9.30;;;8.10;;
4957;SDS011;2494;51.872;9.688;2022-11-20T08:43:24;12.07;;;8.57;;
4957;SDS011;2494;51.872;9.688;2022-11-20T08:46:10;12.50;;;8.40;;
4957;SDS011;2494;51.872;9.688;2022-11-20T08:48:56;12.33;;;9.20;;
4957;SDS011;2494;51.872;9.688;2022-11-20T08:51:41;11.70;;;8.40;;
4957;SDS011;2494;51.872;9.688;2022-11-20T08:54:26;13.50;;;10.20;;
4957;SDS011;2494;51.872;9.688;2022-11-20T08:57:12;13.20;;;9.97;;
4957;SDS011;2494;51.872;9.688;2022-11-20T08:59:57;11.20;;;8.40;;
4957;SDS011;2494;51.872;9.688;2022-11-20T09:02:44;9.43;;;8.30;;
4957;SDS011;2494;51.872;9.688;2022-11-20T09:05:29;12.70;;;9.90;;
4957;SDS011;2494;51.872;9.688;2022-11-20T09:08:14;13.33;;;10.20;;
4957;SDS011;2494;51.872;9.688;2022-11-20T09:10:59;17.37;;;12.57;;
4957;SDS011;2494;51.872;9.688;2022-11-20T09:13:44;25.43;;;14.23;;
4957;SDS011;2494;51.872;9.688;2022-11-20T09:16:29;13.60;;;9.20;;
4957;SDS011;2494;51.872;9.688;2022-11-20T09:19:15;15.13;;;11.60;;
4957;SDS011;2494;51.872;9.688;2022-11-20T09:22:00;22.57;;;15.40;;
4957;SDS011;2494;51.872;9.688;2022-11-20T09:24:46;28.57;;;20.67;;
4957;SDS011;2494;51.872;9.688;2022-11-20T09:27:31;10.47;;;8.20;;
4957;SDS011;2494;51.872;9.688;2022-11-20T09:30:16;10.93;;;9.73;;
4957;SDS011;2494;51.872;9.688;2022-11-20T09:33:00;12.20;;;9.83;;
4957;SDS011;2494;51.872;9.688;2022-11-20T09:35:47;12.33;;;9.63;;
4957;SDS011;2494;51.872;9.688;2022-11-20T09:38:32;12.40;;;10.10;;
4957;SDS011;2494;51.872;9.688;2022-11-20T09:41:31;8.83;;;7.93;;
4957;SDS011;2494;51.872;9.688;2022-11-20T09:44:24;10.97;;;9.20;;
4957;SDS011;2494;51.872;9.688;2022-11-20T09:47:12;13.53;;;10.80;;
4957;SDS011;2494;51.872;9.688;2022-11-20T09:50:04;14.00;;;10.40;;
4957;SDS011;2494;51.872;9.688;2022-11-20T09:52:55;12.30;;;9.70;;
4957;SDS011;2494;51.872;9.688;2022-11-20T09:55:42;10.57;;;8.93;;
4957;SDS011;2494;51.872;9.688;2022-11-20T09:58:28;8.67;;;7.87;;
4957;SDS011;2494;51.872;9.688;2022-11-20T10:01:16;14.63;;;11.13;;
4957;SDS011;2494;51.872;9.688;2022-11-20T10:04:02;20.27;;;13.67;;
4957;SDS011;2494;51.872;9.688;2022-11-20T10:06:50;23.00;;;13.03;;
4957;SDS011;2494;51.872;9.688;2022-11-20T10:09:39;18.37;;;13.30;;
4957;SDS011;2494;51.872;9.688;2022-11-20T10:12:27;16.30;;;13.07;;
4957;SDS011;2494;51.872;9.688;2022-11-20T10:15:19;11.67;;;8.23;;
4957;SDS011;2494;51.872;9.688;2022-11-20T10:18:09;10.73;;;8.27;;
4957;SDS011;2494;51.872;9.688;2022-11-20T10:20:57;10.97;;;9.00;;
4957;SDS011;2494;51.872;9.688;2022-11-20T10:26:50;8.90;;;7.00;;
4957;SDS011;2494;51.872;9.688;2022-11-20T10:29:36;8.93;;;8.03;;
4957;SDS011;2494;51.872;9.688;2022-11-20T10:32:24;10.37;;;9.27;;
4957;SDS011;2494;51.872;9.688;2022-11-20T10:35:20;11.00;;;9.80;;
4957;SDS011;2494;51.872;9.688;2022-11-20T10:38:08;10.23;;;9.00;;
4957;SDS011;2494;51.872;9.688;2022-11-20T10:40:59;9.83;;;8.80;;
4957;SDS011;2494;51.872;9.688;2022-11-20T10:44:03;8.73;;;7.90;;
4957;SDS011;2494;51.872;9.688;2022-11-20T10:46:48;8.97;;;7.80;;
4957;SDS011;2494;51.872;9.688;2022-11-20T10:49:34;7.70;;;6.97;;
4957;SDS011;2494;51.872;9.688;2022-11-20T10:52:21;10.07;;;8.70;;
4957;SDS011;2494;51.872;9.688;2022-11-20T10:55:11;11.30;;;10.30;;
4957;SDS011;2494;51.872;9.688;2022-11-20T10:58:04;10.60;;;8.70;;
4957;SDS011;2494;51.872;9.688;2022-11-20T11:01:04;18.63;;;11.47;;
4957;SDS011;2494;51.872;9.688;2022-11-20T11:03:50;16.13;;;9.30;;
4957;SDS011;2494;51.872;9.688;2022-11-20T11:06:36;16.40;;;11.13;;
4957;SDS011;2494;51.872;9.688;2022-11-20T11:09:24;16.77;;;11.50;;
4957;SDS011;2494;51.872;9.688;2022-11-20T11:12:14;12.10;;;9.37;;
4957;SDS011;2494;51.872;9.688;2022-11-20T11:14:59;11.10;;;9.50;;
4957;SDS011;2494;51.872;9.688;2022-11-20T11:17:47;13.40;;;12.00;;
4957;SDS011;2494;51.872;9.688;2022-11-20T11:20:32;14.27;;;8.77;;
4957;SDS011;2494;51.872;9.688;2022-11-20T11:23:22;15.37;;;10.40;;
4957;SDS011;2494;51.872;9.688;2022-11-20T11:26:18;16.80;;;11.70;;
4957;SDS011;2494;51.872;9.688;2022-11-20T11:29:03;13.97;;;9.83;;
4957;SDS011;2494;51.872;9.688;2022-11-20T11:31:49;10.43;;;8.50;;
4957;SDS011;2494;51.872;9.688;2022-11-20T11:34:36;13.97;;;9.13;;
4957;SDS011;2494;51.872;9.688;2022-11-20T11:37:21;16.37;;;11.07;;
4957;SDS011;2494;51.872;9.688;2022-11-20T11:40:08;12.80;;;9.40;;
4957;SDS011;2494;51.872;9.688;2022-11-20T11:42:56;19.73;;;12.37;;
4957;SDS011;2494;51.872;9.688;2022-11-20T11:45:50;14.17;;;9.40;;
4957;SDS011;2494;51.872;9.688;2022-11-20T11:48:34;14.13;;;9.87;;
4957;SDS011;2494;51.872;9.688;2022-11-20T11:51:21;17.07;;;13.00;;
4957;SDS011;2494;51.872;9.688;2022-11-20T11:54:15;18.57;;;13.30;;
4957;SDS011;2494;51.872;9.688;2022-11-20T11:57:01;17.90;;;12.70;;
4957;SDS011;2494;51.872;9.688;2022-11-20T11:59:55;18.23;;;11.33;;
4957;SDS011;2494;51.872;9.688;2022-11-20T12:02:48;17.13;;;13.23;;
4957;SDS011;2494;51.872;9.688;2022-11-20T12:05:35;16.37;;;13.10;;
4957;SDS011;2494;51.872;9.688;2022-11-20T12:08:23;14.80;;;11.17;;
4957;SDS011;2494;51.872;9.688;2022-11-20T12:11:11;16.20;;;11.63;;
4957;SDS011;2494;51.872;9.688;2022-11-20T12:13:58;15.50;;;11.83;;
4957;SDS011;2494;51.872;9.688;2022-11-20T12:16:47;14.83;;;11.83;;
4957;SDS011;2494;51.872;9.688;2022-11-20T12:19:32;14.00;;;10.53;;
4957;SDS011;2494;51.872;9.688;2022-11-20T12:22:21;17.10;;;14.20;;
4957;SDS011;2494;51.872;9.688;2022-11-20T12:25:14;14.50;;;12.70;;
4957;SDS011;2494;51.872;9.688;2022-11-20T12:28:09;19.10;;;14.60;;
4957;SDS011;2494;51.872;9.688;2022-11-20T12:31:03;18.47;;;13.67;;
4957;SDS011;2494;51.872;9.688;2022-11-20T12:33:52;16.10;;;13.70;;
4957;SDS011;2494;51.872;9.688;2022-11-20T12:36:40;16.33;;;13.17;;
4957;SDS011;2494;51.872;9.688;2022-11-20T12:39:37;16.80;;;11.93;;
4957;SDS011;2494;51.872;9.688;2022-11-20T12:45:54;15.40;;;11.90;;
4957;SDS011;2494;51.872;9.688;2022-11-20T12:48:48;14.83;;;12.23;;
4957;SDS011;2494;51.872;9.688;2022-11-20T12:51:43;17.97;;;14.90;;
4957;SDS011;2494;51.872;9.688;2022-11-20T12:54:46;18.73;;;14.70;;
4957;SDS011;2494;51.872;9.688;2022-11-20T12:57:38;15.93;;;14.07;;
4957;SDS011;2494;51.872;9.688;2022-11-20T13:00:25;15.83;;;12.40;;
4957;SDS011;2494;51.872;9.688;2022-11-20T13:03:24;16.40;;;12.30;;
4957;SDS011;2494;51.872;9.688;2022-11-20T13:06:14;13.67;;;11.10;;
4957;SDS011;2494;51.872;9.688;2022-11-20T13:09:00;18.30;;;13.13;;
4957;SDS011;2494;51.872;9.688;2022-11-20T13:11:47;53.17;;;29.60;;
4957;SDS011;2494;51.872;9.688;2022-11-20T13:14:34;19.37;;;14.57;;
4957;SDS011;2494;51.872;9.688;2022-11-20T13:17:22;25.60;;;18.73;;
4957;SDS011;2494;51.872;9.688;2022-11-20T13:20:13;28.30;;;21.27;;
4957;SDS011;2494;51.872;9.688;2022-11-20T13:22:59;26.17;;;18.50;;
4957;SDS011;2494;51.872;9.688;2022-11-20T13:25:44;16.83;;;13.80;;
4957;SDS011;2494;51.872;9.688;2022-11-20T13:28:30;19.80;;;13.93;;
4957;SDS011;2494;51.872;9.688;2022-11-20T13:31:24;22.50;;;16.50;;
4957;SDS011;2494;51.872;9.688;2022-11-20T13:34:12;17.13;;;13.10;;
4957;SDS011;2494;51.872;9.688;2022-11-20T13:36:59;19.00;;;13.90;;
4957;SDS011;2494;51.872;9.688;2022-11-20T13:39:47;20.23;;;15.00;;
4957;SDS011;2494;51.872;9.688;2022-11-20T13:42:33;18.67;;;13.40;;
4957;SDS011;2494;51.872;9.688;2022-11-20T13:45:22;22.60;;;14.07;;
4957;SDS011;2494;51.872;9.688;2022-11-20T13:48:18;22.07;;;14.73;;
4957;SDS011;2494;51.872;9.688;2022-11-20T13:51:10;20.07;;;14.03;;
4957;SDS011;2494;51.872;9.688;2022-11-20T13:57:08;22.50;;;15.43;;
4957;SDS011;2494;51.872;9.688;2022-11-20T14:00:02;25.70;;;17.73;;
4957;SDS011;2494;51.872;9.688;2022-11-20T14:02:52;26.07;;;18.03;;
4957;SDS011;2494;51.872;9.688;2022-11-20T14:05:45;26.00;;;16.90;;
4957;SDS011;2494;51.872;9.688;2022-11-20T14:08:35;21.77;;;16.63;;
4957;SDS011;2494;51.872;9.688;2022-11-20T14:11:22;20.40;;;14.87;;
4957;SDS011;2494;51.872;9.688;2022-11-20T14:14:13;23.90;;;16.37;;
4957;SDS011;2494;51.872;9.688;2022-11-20T14:17:05;18.57;;;13.83;;
4957;SDS011;2494;51.872;9.688;2022-11-20T14:19:51;19.77;;;15.83;;
4957;SDS011;2494;51.872;9.688;2022-11-20T14:22:36;20.30;;;15.00;;
4957;SDS011;2494;51.872;9.688;2022-11-20T14:25:22;20.63;;;14.73;;
4957;SDS011;2494;51.872;9.688;2022-11-20T14:28:11;21.27;;;15.87;;
4957;SDS011;2494;51.872;9.688;2022-11-20T14:31:08;21.63;;;17.23;;
4957;SDS011;2494;51.872;9.688;2022-11-20T14:34:01;27.50;;;17.50;;
4957;SDS011;2494;51.872;9.688;2022-11-20T14:36:47;18.67;;;14.90;;
4957;SDS011;2494;51.872;9.688;2022-11-20T14:39:33;35.40;;;21.07;;
4957;SDS011;2494;51.872;9.688;2022-11-20T14:42:19;18.50;;;14.50;;
4957;SDS011;2494;51.872;9.688;2022-11-20T14:45:05;25.70;;;16.03;;
4957;SDS011;2494;51.872;9.688;2022-11-20T14:47:52;17.33;;;13.27;;
4957;SDS011;2494;51.872;9.688;2022-11-20T14:50:38;24.33;;;14.67;;
4957;SDS011;2494;51.872;9.688;2022-11-20T14:53:24;21.93;;;14.60;;
4957;SDS011;2494;51.872;9.688;2022-11-20T14:56:09;21.90;;;15.30;;
4957;SDS011;2494;51.872;9.688;2022-11-20T14:58:55;28.67;;;16.37;;
4957;SDS011;2494;51.872;9.688;2022-11-20T15:01:39;22.40;;;16.43;;
4957;SDS011;2494;51.872;9.688;2022-11-20T15:04:45;27.90;;;14.73;;
4957;SDS011;2494;51.872;9.688;2022-11-20T15:07:31;26.27;;;14.70;;
4957;SDS011;2494;51.872;9.688;2022-11-20T15:10:21;23.13;;;16.70;;
4957;SDS011;2494;51.872;9.688;2022-11-20T15:13:10;27.97;;;17.67;;
4957;SDS011;2494;51.872;9.688;2022-11-20T15:15:56;29.70;;;18.63;;
4957;SDS011;2494;51.872;9.688;2022-11-20T15:18:41;25.80;;;16.00;;
4957;SDS011;2494;51.872;9.688;2022-11-20T15:21:28;23.30;;;15.43;;
4957;SDS011;2494;51.872;9.688;2022-11-20T15:24:13;24.90;;;17.23;;
4957;SDS011;2494;51.872;9.688;2022-11-20T15:26:58;21.10;;;13.40;;
4957;SDS011;2494;51.872;9.688;2022-11-20T15:29:43;22.80;;;14.33;;
4957;SDS011;2494;51.872;9.688;2022-11-20T15:32:27;24.07;;;14.73;;
4957;SDS011;2494;51.872;9.688;2022-11-20T15:35:13;27.00;;;16.50;;
4957;SDS011;2494;51.872;9.688;2022-11-20T15:37:59;24.43;;;15.37;;
4957;SDS011;2494;51.872;9.688;2022-11-20T15:40:44;21.57;;;14.87;;
4957;SDS011;2494;51.872;9.688;2022-11-20T15:43:29;25.70;;;16.10;;
4957;SDS011;2494;51.872;9.688;2022-11-20T15:46:14;17.60;;;12.17;;
4957;SDS011;2494;51.872;9.688;2022-11-20T15:49:00;27.37;;;15.43;;
4957;SDS011;2494;51.872;9.688;2022-11-20T15:51:46;21.23;;;15.50;;
4957;SDS011;2494;51.872;9.688;2022-11-20T15:54:33;17.67;;;13.67;;
4957;SDS011;2494;51.872;9.688;2022-11-20T15:57:18;23.80;;;17.40;;
4957;SDS011;2494;51.872;9.688;2022-11-20T16:00:03;23.87;;;17.27;;
4957;SDS011;2494;51.872;9.688;2022-11-20T16:02:48;33.70;;;20.60;;
4957;SDS011;2494;51.872;9.688;2022-11-20T16:05:33;35.53;;;21.17;;
4957;SDS011;2494;51.872;9.688;2022-11-20T16:08:18;29.53;;;18.90;;
4957;SDS011;2494;51.872;9.688;2022-11-20T16:11:05;30.40;;;18.87;;
4957;SDS011;2494;51.872;9.688;2022-11-20T16:13:52;24.47;;;18.80;;
4957;SDS011;2494;51.872;9.688;2022-11-20T16:16:55;23.27;;;16.20;;
4957;SDS011;2494;51.872;9.688;2022-11-20T16:19:41;23.60;;;17.77;;
4957;SDS011;2494;51.872;9.688;2022-11-20T16:22:25;19.00;;;15.60;;
4957;SDS011;2494;51.872;9.688;2022-11-20T16:25:11;17.13;;;12.80;;
4957;SDS011;2494;51.872;9.688;2022-11-20T16:27:57;25.20;;;15.80;;
4957;SDS011;2494;51.872;9.688;2022-11-20T16:30:43;27.30;;;17.90;;
4957;SDS011;2494;51.872;9.688;2022-11-20T16:33:28;23.73;;;16.60;;
4957;SDS011;2494;51.872;9.688;2022-11-20T16:36:14;29.80;;;17.30;;
4957;SDS011;2494;51.872;9.688;2022-11-20T16:39:00;32.73;;;16.67;;
4957;SDS011;2494;51.872;9.688;2022-11-20T16:41:45;29.70;;;16.93;;
4957;SDS011;2494;51.872;9.688;2022-11-20T16:44:31;27.23;;;17.40;;
4957;SDS011;2494;51.872;9.688;2022-11-20T16:47:17;27.97;;;18.57;;
4957;SDS011;2494;51.872;9.688;2022-11-20T16:50:03;39.03;;;23.67;;
4957;SDS011;2494;51.872;9.688;2022-11-20T16:52:48;28.70;;;19.40;;
4957;SDS011;2494;51.872;9.688;2022-11-20T16:55:33;32.93;;;20.73;;
4957;SDS011;2494;51.872;9.688;2022-11-20T16:58:18;31.53;;;17.57;;
4957;SDS011;2494;51.872;9.688;2022-11-20T17:01:08;21.00;;;14.17;;
4957;SDS011;2494;51.872;9.688;2022-11-20T17:03:56;23.50;;;15.40;;
4957;SDS011;2494;51.872;9.688;2022-11-20T17:06:42;18.60;;;11.57;;
4957;SDS011;2494;51.872;9.688;2022-11-20T17:09:28;19.80;;;11.47;;
4957;SDS011;2494;51.872;9.688;2022-11-20T17:12:13;17.20;;;12.00;;
4957;SDS011;2494;51.872;9.688;2022-11-20T17:14:58;21.70;;;12.83;;
4957;SDS011;2494;51.872;9.688;2022-11-20T17:17:45;27.07;;;15.23;;